sensor_id;sensor_type;location;lat;lon;timestamp;temperature;humidity
67249;SHT31;63247;54.300;18.592;2024-02-16T00:00:07;9.29;99.99
67249;SHT31;63247;54.300;18.592;2024-02-16T00:02:32;9.30;99.99
67249;SHT31;63247;54.300;18.592;2024-02-16T00:04:58;9.30;99.99
67249;SHT31;63247;54.300;18.592;2024-02-16T00:07:24;9.35;99.99
67249;SHT31;63247;54.300;18.592;2024-02-16T00:09:50;9.35;99.99
67249;SHT31;63247;54.300;18.592;2024-02-16T00:12:16;9.33;99.99
67249;SHT31;63247;54.300;18.592;2024-02-16T00:14:42;9.37;99.99
67249;SHT31;63247;54.300;18.592;2024-02-16T00:17:07;9.36;99.99
67249;SHT31;63247;54.300;18.592;2024-02-16T00:19:35;9.42;99.99
67249;SHT31;63247;54.300;18.592;2024-02-16T00:22:01;9.43;99.99
67249;SHT31;63247;54.300;18.592;2024-02-16T00:24:27;9.39;99.99
67249;SHT31;63247;54.300;18.592;2024-02-16T00:26:52;9.32;99.99
67249;SHT31;63247;54.300;18.592;2024-02-16T00:29:18;9.29;99.99
67249;SHT31;63247;54.300;18.592;2024-02-16T00:31:44;9.39;99.99
67249;SHT31;63247;54.300;18.592;2024-02-16T00:34:10;9.37;99.99
67249;SHT31;63247;54.300;18.592;2024-02-16T00:36:36;9.40;99.99
67249;SHT31;63247;54.300;18.592;2024-02-16T00:39:01;9.42;99.99
67249;SHT31;63247;54.300;18.592;2024-02-16T00:41:29;9.44;99.99
67249;SHT31;63247;54.300;18.592;2024-02-16T00:43:55;9.48;99.99
67249;SHT31;63247;54.300;18.592;2024-02-16T00:46:22;9.43;99.99
67249;SHT31;63247;54.300;18.592;2024-02-16T00:48:49;9.42;99.99
67249;SHT31;63247;54.300;18.592;2024-02-16T00:51:14;9.40;99.99
67249;SHT31;63247;54.300;18.592;2024-02-16T00:53:40;9.50;99.99
67249;SHT31;63247;54.300;18.592;2024-02-16T00:56:06;9.46;99.99
67249;SHT31;63247;54.300;18.592;2024-02-16T00:58:32;9.43;99.99
67249;SHT31;63247;54.300;18.592;2024-02-16T01:00:58;9.42;99.99
67249;SHT31;63247;54.300;18.592;2024-02-16T01:03:24;9.48;99.99
67249;SHT31;63247;54.300;18.592;2024-02-16T01:05:54;9.51;99.99
67249;SHT31;63247;54.300;18.592;2024-02-16T01:08:19;9.46;99.99
67249;SHT31;63247;54.300;18.592;2024-02-16T01:10:45;9.50;99.99
67249;SHT31;63247;54.300;18.592;2024-02-16T01:13:11;9.47;99.99
67249;SHT31;63247;54.300;18.592;2024-02-16T01:15:37;9.54;99.99
67249;SHT31;63247;54.300;18.592;2024-02-16T01:18:03;9.53;99.99
67249;SHT31;63247;54.300;18.592;2024-02-16T01:20:29;9.57;99.99
67249;SHT31;63247;54.300;18.592;2024-02-16T01:22:56;9.51;99.99
67249;SHT31;63247;54.300;18.592;2024-02-16T01:25:22;9.46;99.99
67249;SHT31;63247;54.300;18.592;2024-02-16T01:27:47;9.51;99.99
67249;SHT31;63247;54.300;18.592;2024-02-16T01:30:13;9.50;99.99
67249;SHT31;63247;54.300;18.592;2024-02-16T01:32:40;9.50;99.99
67249;SHT31;63247;54.300;18.592;2024-02-16T01:35:06;9.51;99.99
67249;SHT31;63247;54.300;18.592;2024-02-16T01:37:32;9.58;99.99
67249;SHT31;63247;54.300;18.592;2024-02-16T01:39:57;9.56;99.99
67249;SHT31;63247;54.300;18.592;2024-02-16T01:42:23;9.58;99.99
67249;SHT31;63247;54.300;18.592;2024-02-16T01:44:48;9.51;99.99
67249;SHT31;63247;54.300;18.592;2024-02-16T01:47:14;9.44;99.99
67249;SHT31;63247;54.300;18.592;2024-02-16T01:49:40;9.47;99.99
67249;SHT31;63247;54.300;18.592;2024-02-16T01:52:06;9.48;99.99
67249;SHT31;63247;54.300;18.592;2024-02-16T01:54:31;9.50;99.99
67249;SHT31;63247;54.300;18.592;2024-02-16T01:56:57;9.40;99.99
67249;SHT31;63247;54.300;18.592;2024-02-16T01:59:24;9.46;99.99
67249;SHT31;63247;54.300;18.592;2024-02-16T02:01:50;9.42;99.99
67249;SHT31;63247;54.300;18.592;2024-02-16T02:04:16;9.37;99.99
67249;SHT31;63247;54.300;18.592;2024-02-16T02:06:41;9.40;99.99
67249;SHT31;63247;54.300;18.592;2024-02-16T02:09:07;9.36;99.99
67249;SHT31;63247;54.300;18.592;2024-02-16T02:11:34;9.39;99.99
67249;SHT31;63247;54.300;18.592;2024-02-16T02:14:00;9.42;99.99
67249;SHT31;63247;54.300;18.592;2024-02-16T02:16:25;9.42;99.99
67249;SHT31;63247;54.300;18.592;2024-02-16T02:18:52;9.40;99.99
67249;SHT31;63247;54.300;18.592;2024-02-16T02:21:17;9.37;99.99
67249;SHT31;63247;54.300;18.592;2024-02-16T02:23:43;9.40;99.99
67249;SHT31;63247;54.300;18.592;2024-02-16T02:26:09;9.40;99.99
67249;SHT31;63247;54.300;18.592;2024-02-16T02:28:34;9.46;99.99
67249;SHT31;63247;54.300;18.592;2024-02-16T02:31:00;9.42;99.99
67249;SHT31;63247;54.300;18.592;2024-02-16T02:33:25;9.43;99.99
67249;SHT31;63247;54.300;18.592;2024-02-16T02:35:50;9.43;99.99
67249;SHT31;63247;54.300;18.592;2024-02-16T02:38:16;9.47;99.99
67249;SHT31;63247;54.300;18.592;2024-02-16T02:40:42;9.44;99.99
67249;SHT31;63247;54.300;18.592;2024-02-16T02:43:07;9.40;99.99
67249;SHT31;63247;54.300;18.592;2024-02-16T02:45:33;9.44;99.99
67249;SHT31;63247;54.300;18.592;2024-02-16T02:47:59;9.44;99.99
67249;SHT31;63247;54.300;18.592;2024-02-16T02:50:25;9.47;99.99
67249;SHT31;63247;54.300;18.592;2024-02-16T02:52:50;9.46;99.99
67249;SHT31;63247;54.300;18.592;2024-02-16T02:55:16;9.44;99.99
67249;SHT31;63247;54.300;18.592;2024-02-16T02:57:42;9.43;99.99
67249;SHT31;63247;54.300;18.592;2024-02-16T03:00:08;9.44;99.99
67249;SHT31;63247;54.300;18.592;2024-02-16T03:02:42;9.43;99.99
67249;SHT31;63247;54.300;18.592;2024-02-16T03:05:09;9.47;99.99
67249;SHT31;63247;54.300;18.592;2024-02-16T03:07:34;9.47;99.99
67249;SHT31;63247;54.300;18.592;2024-02-16T03:10:00;9.46;99.99
67249;SHT31;63247;54.300;18.592;2024-02-16T03:12:25;9.48;99.99
67249;SHT31;63247;54.300;18.592;2024-02-16T03:14:51;9.44;99.99
67249;SHT31;63247;54.300;18.592;2024-02-16T03:17:17;9.43;99.99
67249;SHT31;63247;54.300;18.592;2024-02-16T03:19:42;9.47;99.99
67249;SHT31;63247;54.300;18.592;2024-02-16T03:22:07;9.48;99.99
67249;SHT31;63247;54.300;18.592;2024-02-16T03:24:33;9.46;99.99
67249;SHT31;63247;54.300;18.592;2024-02-16T03:26:59;9.57;99.99
67249;SHT31;63247;54.300;18.592;2024-02-16T03:29:26;9.51;99.99
67249;SHT31;63247;54.300;18.592;2024-02-16T03:31:51;9.46;99.99
67249;SHT31;63247;54.300;18.592;2024-02-16T03:34:17;9.46;99.99
67249;SHT31;63247;54.300;18.592;2024-02-16T03:36:42;9.47;99.99
67249;SHT31;63247;54.300;18.592;2024-02-16T03:39:07;9.50;99.99
67249;SHT31;63247;54.300;18.592;2024-02-16T03:41:34;9.53;99.99
67249;SHT31;63247;54.300;18.592;2024-02-16T03:43:59;9.53;99.99
67249;SHT31;63247;54.300;18.592;2024-02-16T03:46:25;9.51;99.99
67249;SHT31;63247;54.300;18.592;2024-02-16T03:48:51;9.50;99.99
67249;SHT31;63247;54.300;18.592;2024-02-16T03:51:17;9.57;99.99
67249;SHT31;63247;54.300;18.592;2024-02-16T03:53:42;9.54;99.99
67249;SHT31;63247;54.300;18.592;2024-02-16T03:56:10;9.56;99.99
67249;SHT31;63247;54.300;18.592;2024-02-16T03:58:36;9.58;99.99
67249;SHT31;63247;54.300;18.592;2024-02-16T04:01:01;9.54;99.99
67249;SHT31;63247;54.300;18.592;2024-02-16T04:03:27;9.60;99.99
67249;SHT31;63247;54.300;18.592;2024-02-16T04:05:52;9.53;99.99
67249;SHT31;63247;54.300;18.592;2024-02-16T04:08:18;9.58;99.99
67249;SHT31;63247;54.300;18.592;2024-02-16T04:10:45;9.58;99.99
67249;SHT31;63247;54.300;18.592;2024-02-16T04:13:11;9.58;99.99
67249;SHT31;63247;54.300;18.592;2024-02-16T04:15:36;9.60;99.99
67249;SHT31;63247;54.300;18.592;2024-02-16T04:18:02;9.60;99.99
67249;SHT31;63247;54.300;18.592;2024-02-16T04:20:27;9.63;99.99
67249;SHT31;63247;54.300;18.592;2024-02-16T04:22:53;9.58;99.99
67249;SHT31;63247;54.300;18.592;2024-02-16T04:25:18;9.64;99.99
67249;SHT31;63247;54.300;18.592;2024-02-16T04:27:43;9.61;99.99
67249;SHT31;63247;54.300;18.592;2024-02-16T04:30:09;9.64;99.99
67249;SHT31;63247;54.300;18.592;2024-02-16T04:32:34;9.61;99.99
67249;SHT31;63247;54.300;18.592;2024-02-16T04:35:00;9.61;99.99
67249;SHT31;63247;54.300;18.592;2024-02-16T04:37:25;9.58;99.99
67249;SHT31;63247;54.300;18.592;2024-02-16T04:39:51;9.60;99.99
67249;SHT31;63247;54.300;18.592;2024-02-16T04:42:17;9.57;99.99
67249;SHT31;63247;54.300;18.592;2024-02-16T04:44:43;9.63;99.99
67249;SHT31;63247;54.300;18.592;2024-02-16T04:47:08;9.64;99.99
67249;SHT31;63247;54.300;18.592;2024-02-16T04:49:34;9.60;99.99
67249;SHT31;63247;54.300;18.592;2024-02-16T04:52:00;9.56;99.99
67249;SHT31;63247;54.300;18.592;2024-02-16T04:54:25;9.58;99.99
67249;SHT31;63247;54.300;18.592;2024-02-16T04:56:51;9.54;99.99
67249;SHT31;63247;54.300;18.592;2024-02-16T04:59:16;9.51;99.99
67249;SHT31;63247;54.300;18.592;2024-02-16T05:01:46;9.51;99.99
67249;SHT31;63247;54.300;18.592;2024-02-16T05:04:12;9.46;99.99
67249;SHT31;63247;54.300;18.592;2024-02-16T05:06:44;9.46;99.99
67249;SHT31;63247;54.300;18.592;2024-02-16T05:09:11;9.39;99.99
67249;SHT31;63247;54.300;18.592;2024-02-16T05:11:37;9.46;99.99
67249;SHT31;63247;54.300;18.592;2024-02-16T05:14:03;9.43;99.99
67249;SHT31;63247;54.300;18.592;2024-02-16T05:16:28;9.39;99.99
67249;SHT31;63247;54.300;18.592;2024-02-16T05:18:55;9.36;99.99
67249;SHT31;63247;54.300;18.592;2024-02-16T05:21:21;9.36;99.99
67249;SHT31;63247;54.300;18.592;2024-02-16T05:23:47;9.32;99.99
67249;SHT31;63247;54.300;18.592;2024-02-16T05:26:13;9.27;99.99
67249;SHT31;63247;54.300;18.592;2024-02-16T05:28:38;9.26;99.99
67249;SHT31;63247;54.300;18.592;2024-02-16T05:31:13;9.22;99.99
67249;SHT31;63247;54.300;18.592;2024-02-16T05:33:44;9.19;99.99
67249;SHT31;63247;54.300;18.592;2024-02-16T05:36:10;9.26;99.99
67249;SHT31;63247;54.300;18.592;2024-02-16T05:38:35;9.27;99.99
67249;SHT31;63247;54.300;18.592;2024-02-16T05:41:09;9.30;99.99
67249;SHT31;63247;54.300;18.592;2024-02-16T05:43:36;9.32;99.99
67249;SHT31;63247;54.300;18.592;2024-02-16T05:46:03;9.35;99.99
67249;SHT31;63247;54.300;18.592;2024-02-16T05:48:32;9.37;99.99
67249;SHT31;63247;54.300;18.592;2024-02-16T05:51:00;9.40;99.99
67249;SHT31;63247;54.300;18.592;2024-02-16T05:53:26;9.39;99.99
67249;SHT31;63247;54.300;18.592;2024-02-16T05:55:53;9.36;99.99
67249;SHT31;63247;54.300;18.592;2024-02-16T05:58:18;9.39;99.99
67249;SHT31;63247;54.300;18.592;2024-02-16T06:00:43;9.39;99.99
67249;SHT31;63247;54.300;18.592;2024-02-16T06:03:09;9.40;99.99
67249;SHT31;63247;54.300;18.592;2024-02-16T06:05:34;9.43;99.99
67249;SHT31;63247;54.300;18.592;2024-02-16T06:08:00;9.46;99.99
67249;SHT31;63247;54.300;18.592;2024-02-16T06:10:26;9.46;99.99
67249;SHT31;63247;54.300;18.592;2024-02-16T06:12:51;9.46;99.99
67249;SHT31;63247;54.300;18.592;2024-02-16T06:15:17;9.43;99.99
67249;SHT31;63247;54.300;18.592;2024-02-16T06:17:42;9.42;99.99
67249;SHT31;63247;54.300;18.592;2024-02-16T06:20:08;9.42;99.99
67249;SHT31;63247;54.300;18.592;2024-02-16T06:22:37;9.36;99.99
67249;SHT31;63247;54.300;18.592;2024-02-16T06:25:02;9.37;99.99
67249;SHT31;63247;54.300;18.592;2024-02-16T06:27:28;9.42;99.99
67249;SHT31;63247;54.300;18.592;2024-02-16T06:29:53;9.37;99.99
67249;SHT31;63247;54.300;18.592;2024-02-16T06:32:19;9.42;99.99
67249;SHT31;63247;54.300;18.592;2024-02-16T06:34:45;9.40;99.99
67249;SHT31;63247;54.300;18.592;2024-02-16T06:37:13;9.39;99.99
67249;SHT31;63247;54.300;18.592;2024-02-16T06:39:38;9.40;99.99
67249;SHT31;63247;54.300;18.592;2024-02-16T06:42:05;9.42;99.99
67249;SHT31;63247;54.300;18.592;2024-02-16T06:44:30;9.37;99.99
67249;SHT31;63247;54.300;18.592;2024-02-16T06:46:56;9.42;99.99
67249;SHT31;63247;54.300;18.592;2024-02-16T06:49:21;9.44;99.99
67249;SHT31;63247;54.300;18.592;2024-02-16T06:51:47;9.40;99.99
67249;SHT31;63247;54.300;18.592;2024-02-16T06:54:12;9.40;99.99
67249;SHT31;63247;54.300;18.592;2024-02-16T06:56:37;9.36;99.99
67249;SHT31;63247;54.300;18.592;2024-02-16T06:59:03;9.43;99.99
67249;SHT31;63247;54.300;18.592;2024-02-16T07:01:28;9.40;99.99
67249;SHT31;63247;54.300;18.592;2024-02-16T07:03:54;9.42;99.99
67249;SHT31;63247;54.300;18.592;2024-02-16T07:06:20;9.43;99.99
67249;SHT31;63247;54.300;18.592;2024-02-16T07:08:45;9.50;99.99
67249;SHT31;63247;54.300;18.592;2024-02-16T07:11:11;9.50;99.99
67249;SHT31;63247;54.300;18.592;2024-02-16T07:13:40;9.57;99.99
67249;SHT31;63247;54.300;18.592;2024-02-16T07:16:06;9.56;99.99
67249;SHT31;63247;54.300;18.592;2024-02-16T07:18:35;9.63;99.99
67249;SHT31;63247;54.300;18.592;2024-02-16T07:21:01;9.63;99.99
67249;SHT31;63247;54.300;18.592;2024-02-16T07:23:27;9.73;99.99
67249;SHT31;63247;54.300;18.592;2024-02-16T07:25:53;9.73;99.99
67249;SHT31;63247;54.300;18.592;2024-02-16T07:28:23;9.71;99.99
67249;SHT31;63247;54.300;18.592;2024-02-16T07:30:50;9.77;99.99
67249;SHT31;63247;54.300;18.592;2024-02-16T07:33:16;9.83;99.99
67249;SHT31;63247;54.300;18.592;2024-02-16T07:35:41;9.75;99.99
67249;SHT31;63247;54.300;18.592;2024-02-16T07:38:06;9.77;99.99
67249;SHT31;63247;54.300;18.592;2024-02-16T07:40:32;9.71;99.99
67249;SHT31;63247;54.300;18.592;2024-02-16T07:42:58;9.71;99.99
67249;SHT31;63247;54.300;18.592;2024-02-16T07:45:23;9.90;99.99
67249;SHT31;63247;54.300;18.592;2024-02-16T07:47:49;9.75;99.99
67249;SHT31;63247;54.300;18.592;2024-02-16T07:50:19;9.70;99.99
67249;SHT31;63247;54.300;18.592;2024-02-16T07:52:45;9.83;99.99
67249;SHT31;63247;54.300;18.592;2024-02-16T07:55:10;9.74;99.99
67249;SHT31;63247;54.300;18.592;2024-02-16T07:57:36;9.74;99.99
67249;SHT31;63247;54.300;18.592;2024-02-16T08:00:02;9.74;99.99
67249;SHT31;63247;54.300;18.592;2024-02-16T08:02:28;9.70;99.99
67249;SHT31;63247;54.300;18.592;2024-02-16T08:04:54;9.77;99.99
67249;SHT31;63247;54.300;18.592;2024-02-16T08:07:19;9.83;99.99
67249;SHT31;63247;54.300;18.592;2024-02-16T08:09:46;9.97;99.99
67249;SHT31;63247;54.300;18.592;2024-02-16T08:12:12;9.88;99.99
67249;SHT31;63247;54.300;18.592;2024-02-16T08:14:41;9.93;99.99
67249;SHT31;63247;54.300;18.592;2024-02-16T08:17:07;9.94;99.99
67249;SHT31;63247;54.300;18.592;2024-02-16T08:19:36;9.90;99.99
67249;SHT31;63247;54.300;18.592;2024-02-16T08:22:06;9.98;99.99
67249;SHT31;63247;54.300;18.592;2024-02-16T08:24:32;10.19;99.99
67249;SHT31;63247;54.300;18.592;2024-02-16T08:26:58;10.11;99.99
67249;SHT31;63247;54.300;18.592;2024-02-16T08:29:24;10.05;99.99
67249;SHT31;63247;54.300;18.592;2024-02-16T08:31:51;10.08;99.99
67249;SHT31;63247;54.300;18.592;2024-02-16T08:34:16;10.15;99.99
67249;SHT31;63247;54.300;18.592;2024-02-16T08:36:48;10.11;99.99
67249;SHT31;63247;54.300;18.592;2024-02-16T08:39:16;9.95;99.99
67249;SHT31;63247;54.300;18.592;2024-02-16T08:41:41;9.93;99.99
67249;SHT31;63247;54.300;18.592;2024-02-16T08:44:09;10.01;99.99
67249;SHT31;63247;54.300;18.592;2024-02-16T08:46:36;10.01;99.99
67249;SHT31;63247;54.300;18.592;2024-02-16T08:49:02;10.01;99.99
67249;SHT31;63247;54.300;18.592;2024-02-16T08:51:28;10.12;99.99
67249;SHT31;63247;54.300;18.592;2024-02-16T08:53:54;9.98;99.99
67249;SHT31;63247;54.300;18.592;2024-02-16T08:56:19;10.13;99.99
67249;SHT31;63247;54.300;18.592;2024-02-16T08:58:44;10.19;99.99
67249;SHT31;63247;54.300;18.592;2024-02-16T09:01:10;10.85;99.99
67249;SHT31;63247;54.300;18.592;2024-02-16T09:03:35;10.53;99.99
67249;SHT31;63247;54.300;18.592;2024-02-16T09:06:03;10.87;99.99
67249;SHT31;63247;54.300;18.592;2024-02-16T09:08:29;11.12;99.99
67249;SHT31;63247;54.300;18.592;2024-02-16T09:11:05;10.89;99.99
67249;SHT31;63247;54.300;18.592;2024-02-16T09:13:35;11.58;99.99
67249;SHT31;63247;54.300;18.592;2024-02-16T09:16:02;11.08;99.99
67249;SHT31;63247;54.300;18.592;2024-02-16T09:18:29;10.93;99.99
67249;SHT31;63247;54.300;18.592;2024-02-16T09:20:54;10.83;99.99
67249;SHT31;63247;54.300;18.592;2024-02-16T09:23:19;10.85;99.99
67249;SHT31;63247;54.300;18.592;2024-02-16T09:25:45;10.77;99.99
67249;SHT31;63247;54.300;18.592;2024-02-16T09:28:11;11.07;99.99
67249;SHT31;63247;54.300;18.592;2024-02-16T09:30:38;11.08;99.99
67249;SHT31;63247;54.300;18.592;2024-02-16T09:33:03;11.38;99.99
67249;SHT31;63247;54.300;18.592;2024-02-16T09:35:29;11.25;99.99
67249;SHT31;63247;54.300;18.592;2024-02-16T09:37:54;11.00;99.99
67249;SHT31;63247;54.300;18.592;2024-02-16T09:40:21;10.97;99.99
67249;SHT31;63247;54.300;18.592;2024-02-16T09:42:48;11.46;99.99
67249;SHT31;63247;54.300;18.592;2024-02-16T09:45:16;10.90;99.99
67249;SHT31;63247;54.300;18.592;2024-02-16T09:47:46;11.22;99.99
67249;SHT31;63247;54.300;18.592;2024-02-16T09:50:14;11.42;99.99
67249;SHT31;63247;54.300;18.592;2024-02-16T09:52:40;11.76;99.99
67249;SHT31;63247;54.300;18.592;2024-02-16T09:55:12;11.62;99.99
67249;SHT31;63247;54.300;18.592;2024-02-16T09:57:37;12.38;99.99
67249;SHT31;63247;54.300;18.592;2024-02-16T10:00:03;12.85;99.99
67249;SHT31;63247;54.300;18.592;2024-02-16T10:02:42;13.34;99.23
67249;SHT31;63247;54.300;18.592;2024-02-16T10:05:19;13.04;99.24
67249;SHT31;63247;54.300;18.592;2024-02-16T10:07:45;13.57;98.59
67249;SHT31;63247;54.300;18.592;2024-02-16T10:10:24;12.49;99.98
67249;SHT31;63247;54.300;18.592;2024-02-16T10:13:00;13.10;98.69
67249;SHT31;63247;54.300;18.592;2024-02-16T10:15:25;13.71;97.91
67249;SHT31;63247;54.300;18.592;2024-02-16T10:17:58;13.53;97.31
67249;SHT31;63247;54.300;18.592;2024-02-16T10:20:24;13.90;96.60
67249;SHT31;63247;54.300;18.592;2024-02-16T10:22:49;14.51;95.57
67249;SHT31;63247;54.300;18.592;2024-02-16T10:25:15;14.50;95.34
67249;SHT31;63247;54.300;18.592;2024-02-16T10:27:40;14.74;94.62
67249;SHT31;63247;54.300;18.592;2024-02-16T10:30:07;14.61;94.67
67249;SHT31;63247;54.300;18.592;2024-02-16T10:32:38;14.57;95.41
67249;SHT31;63247;54.300;18.592;2024-02-16T10:35:06;14.80;94.15
67249;SHT31;63247;54.300;18.592;2024-02-16T10:37:33;14.91;94.08
67249;SHT31;63247;54.300;18.592;2024-02-16T10:39:59;15.14;93.39
67249;SHT31;63247;54.300;18.592;2024-02-16T10:42:27;14.87;94.12
67249;SHT31;63247;54.300;18.592;2024-02-16T10:44:53;15.39;92.80
67249;SHT31;63247;54.300;18.592;2024-02-16T10:47:18;16.00;91.83
67249;SHT31;63247;54.300;18.592;2024-02-16T10:49:44;15.57;91.78
67249;SHT31;63247;54.300;18.592;2024-02-16T10:52:11;15.83;91.55
67249;SHT31;63247;54.300;18.592;2024-02-16T10:54:38;15.12;92.42
67249;SHT31;63247;54.300;18.592;2024-02-16T10:57:08;15.32;92.73
67249;SHT31;63247;54.300;18.592;2024-02-16T10:59:41;14.75;93.79
67249;SHT31;63247;54.300;18.592;2024-02-16T11:02:10;14.65;94.23
67249;SHT31;63247;54.300;18.592;2024-02-16T11:04:39;14.40;95.45
67249;SHT31;63247;54.300;18.592;2024-02-16T11:07:31;14.20;95.34
67249;SHT31;63247;54.300;18.592;2024-02-16T11:09:59;13.89;96.21
67249;SHT31;63247;54.300;18.592;2024-02-16T11:12:33;13.85;96.70
67249;SHT31;63247;54.300;18.592;2024-02-16T11:15:00;13.74;96.72
67249;SHT31;63247;54.300;18.592;2024-02-16T11:17:25;13.69;96.83
67249;SHT31;63247;54.300;18.592;2024-02-16T11:19:55;13.54;97.07
67249;SHT31;63247;54.300;18.592;2024-02-16T11:22:22;13.44;97.67
67249;SHT31;63247;54.300;18.592;2024-02-16T11:24:50;13.48;97.41
67249;SHT31;63247;54.300;18.592;2024-02-16T11:27:16;13.44;97.20
67249;SHT31;63247;54.300;18.592;2024-02-16T11:29:45;13.65;96.61
67249;SHT31;63247;54.300;18.592;2024-02-16T11:32:10;13.41;96.87
67249;SHT31;63247;54.300;18.592;2024-02-16T11:34:36;13.48;97.43
67249;SHT31;63247;54.300;18.592;2024-02-16T11:37:04;13.67;96.95
67249;SHT31;63247;54.300;18.592;2024-02-16T11:39:32;13.69;96.95
67249;SHT31;63247;54.300;18.592;2024-02-16T11:42:06;13.72;96.84
67249;SHT31;63247;54.300;18.592;2024-02-16T11:44:33;14.12;96.41
67249;SHT31;63247;54.300;18.592;2024-02-16T11:46:59;13.85;96.25
67249;SHT31;63247;54.300;18.592;2024-02-16T11:49:25;13.60;96.44
67249;SHT31;63247;54.300;18.592;2024-02-16T11:51:51;13.90;96.40
67249;SHT31;63247;54.300;18.592;2024-02-16T11:54:16;13.90;96.47
67249;SHT31;63247;54.300;18.592;2024-02-16T11:56:45;13.85;96.00
67249;SHT31;63247;54.300;18.592;2024-02-16T11:59:13;14.02;96.29
67249;SHT31;63247;54.300;18.592;2024-02-16T12:01:56;13.85;95.94
67249;SHT31;63247;54.300;18.592;2024-02-16T12:04:24;14.08;96.10
67249;SHT31;63247;54.300;18.592;2024-02-16T12:06:59;13.61;96.12
67249;SHT31;63247;54.300;18.592;2024-02-16T12:09:26;13.74;96.29
67249;SHT31;63247;54.300;18.592;2024-02-16T12:11:55;13.88;96.09
67249;SHT31;63247;54.300;18.592;2024-02-16T12:14:24;13.68;96.52
67249;SHT31;63247;54.300;18.592;2024-02-16T12:16:55;13.75;96.49
67249;SHT31;63247;54.300;18.592;2024-02-16T12:19:21;13.74;96.15
67249;SHT31;63247;54.300;18.592;2024-02-16T12:21:51;13.92;96.10
67249;SHT31;63247;54.300;18.592;2024-02-16T12:24:17;13.90;96.49
67249;SHT31;63247;54.300;18.592;2024-02-16T12:26:43;13.90;96.28
67249;SHT31;63247;54.300;18.592;2024-02-16T12:29:08;13.77;96.48
67249;SHT31;63247;54.300;18.592;2024-02-16T12:31:38;13.90;96.70
67249;SHT31;63247;54.300;18.592;2024-02-16T12:34:05;13.90;96.35
67249;SHT31;63247;54.300;18.592;2024-02-16T12:36:33;13.90;96.57
67249;SHT31;63247;54.300;18.592;2024-02-16T12:38:59;13.79;96.41
67249;SHT31;63247;54.300;18.592;2024-02-16T12:41:24;13.92;96.37
67249;SHT31;63247;54.300;18.592;2024-02-16T12:43:50;13.90;96.61
67249;SHT31;63247;54.300;18.592;2024-02-16T12:46:16;13.83;96.67
67249;SHT31;63247;54.300;18.592;2024-02-16T12:48:41;13.78;96.50
67249;SHT31;63247;54.300;18.592;2024-02-16T12:51:06;13.86;96.09
67249;SHT31;63247;54.300;18.592;2024-02-16T12:53:32;13.72;96.06
67249;SHT31;63247;54.300;18.592;2024-02-16T12:56:06;13.86;96.48
67249;SHT31;63247;54.300;18.592;2024-02-16T12:58:32;13.58;96.25
67249;SHT31;63247;54.300;18.592;2024-02-16T13:00:57;13.67;96.40
67249;SHT31;63247;54.300;18.592;2024-02-16T13:03:23;13.74;96.43
67249;SHT31;63247;54.300;18.592;2024-02-16T13:05:48;13.68;96.08
67249;SHT31;63247;54.300;18.592;2024-02-16T13:08:14;13.71;95.88
67249;SHT31;63247;54.300;18.592;2024-02-16T13:10:40;13.68;96.13
67249;SHT31;63247;54.300;18.592;2024-02-16T13:13:05;13.51;96.01
67249;SHT31;63247;54.300;18.592;2024-02-16T13:15:30;13.50;96.43
67249;SHT31;63247;54.300;18.592;2024-02-16T13:17:56;13.50;96.85
67249;SHT31;63247;54.300;18.592;2024-02-16T13:20:22;13.60;97.25
67249;SHT31;63247;54.300;18.592;2024-02-16T13:22:47;13.40;97.24
67249;SHT31;63247;54.300;18.592;2024-02-16T13:25:12;13.31;97.02
67249;SHT31;63247;54.300;18.592;2024-02-16T13:27:38;13.27;97.00
67249;SHT31;63247;54.300;18.592;2024-02-16T13:30:04;13.46;97.28
67249;SHT31;63247;54.300;18.592;2024-02-16T13:32:32;13.48;96.85
67249;SHT31;63247;54.300;18.592;2024-02-16T13:34:58;13.53;96.81
67249;SHT31;63247;54.300;18.592;2024-02-16T13:37:24;13.53;96.61
67249;SHT31;63247;54.300;18.592;2024-02-16T13:39:49;13.46;96.70
67249;SHT31;63247;54.300;18.592;2024-02-16T13:42:16;13.33;97.13
67249;SHT31;63247;54.300;18.592;2024-02-16T13:44:42;13.23;97.39
67249;SHT31;63247;54.300;18.592;2024-02-16T13:47:08;13.17;97.63
67249;SHT31;63247;54.300;18.592;2024-02-16T13:49:33;13.20;97.39
67249;SHT31;63247;54.300;18.592;2024-02-16T13:51:59;13.19;97.64
67249;SHT31;63247;54.300;18.592;2024-02-16T13:54:26;13.24;97.79
67249;SHT31;63247;54.300;18.592;2024-02-16T13:56:51;13.17;97.09
67249;SHT31;63247;54.300;18.592;2024-02-16T13:59:18;13.14;96.34
67249;SHT31;63247;54.300;18.592;2024-02-16T14:01:43;13.13;96.49
67249;SHT31;63247;54.300;18.592;2024-02-16T14:04:09;13.03;95.79
67249;SHT31;63247;54.300;18.592;2024-02-16T14:06:34;13.04;96.50
67249;SHT31;63247;54.300;18.592;2024-02-16T14:09:01;13.02;96.58
67249;SHT31;63247;54.300;18.592;2024-02-16T14:11:26;13.03;96.63
67249;SHT31;63247;54.300;18.592;2024-02-16T14:13:52;12.99;96.42
67249;SHT31;63247;54.300;18.592;2024-02-16T14:16:17;12.91;96.40
67249;SHT31;63247;54.300;18.592;2024-02-16T14:18:43;12.89;97.04
67249;SHT31;63247;54.300;18.592;2024-02-16T14:21:08;12.88;96.94
67249;SHT31;63247;54.300;18.592;2024-02-16T14:23:34;12.93;96.76
67249;SHT31;63247;54.300;18.592;2024-02-16T14:25:59;12.93;97.09
67249;SHT31;63247;54.300;18.592;2024-02-16T14:28:25;13.04;97.36
67249;SHT31;63247;54.300;18.592;2024-02-16T14:30:50;12.93;96.93
67249;SHT31;63247;54.300;18.592;2024-02-16T14:33:16;13.02;97.17
67249;SHT31;63247;54.300;18.592;2024-02-16T14:35:45;13.03;97.16
67249;SHT31;63247;54.300;18.592;2024-02-16T14:38:11;13.04;97.24
67249;SHT31;63247;54.300;18.592;2024-02-16T14:40:38;12.99;97.28
67249;SHT31;63247;54.300;18.592;2024-02-16T14:43:04;12.95;97.73
67249;SHT31;63247;54.300;18.592;2024-02-16T14:45:29;12.92;97.58
67249;SHT31;63247;54.300;18.592;2024-02-16T14:47:55;12.97;97.20
67249;SHT31;63247;54.300;18.592;2024-02-16T14:50:20;12.97;97.43
67249;SHT31;63247;54.300;18.592;2024-02-16T14:52:46;12.95;97.84
67249;SHT31;63247;54.300;18.592;2024-02-16T14:55:12;12.89;97.80
67249;SHT31;63247;54.300;18.592;2024-02-16T14:57:42;12.83;98.26
67249;SHT31;63247;54.300;18.592;2024-02-16T15:00:09;12.82;98.18
67249;SHT31;63247;54.300;18.592;2024-02-16T15:02:36;12.79;98.02
67249;SHT31;63247;54.300;18.592;2024-02-16T15:05:03;12.86;98.26
67249;SHT31;63247;54.300;18.592;2024-02-16T15:07:29;12.82;98.37
67249;SHT31;63247;54.300;18.592;2024-02-16T15:09:54;12.88;98.30
67249;SHT31;63247;54.300;18.592;2024-02-16T15:12:20;12.89;98.35
67249;SHT31;63247;54.300;18.592;2024-02-16T15:14:46;12.83;98.48
67249;SHT31;63247;54.300;18.592;2024-02-16T15:17:12;12.83;98.33
67249;SHT31;63247;54.300;18.592;2024-02-16T15:19:37;12.78;98.45